createdAt,value
2019-02-22T00:02:14.950Z,59.70
2019-02-22T00:05:04.437Z,59.50
2019-02-22T00:14:07.010Z,58.90
2019-02-22T00:16:43.776Z,58.80
2019-02-22T00:19:14.025Z,58.30
2019-02-22T00:22:03.595Z,58.30
2019-02-22T00:24:37.893Z,57.80
2019-02-22T00:27:32.427Z,58.00
2019-02-22T00:30:11.184Z,57.80
2019-02-22T00:32:42.611Z,57.50
2019-02-22T00:35:12.899Z,57.50
2019-02-22T00:37:42.363Z,57.50
2019-02-22T00:40:14.606Z,57.50
2019-02-22T00:42:45.479Z,57.40
2019-02-22T00:45:16.092Z,57.30
2019-02-22T00:47:46.562Z,57.30
2019-02-22T00:50:16.135Z,57.20
2019-02-22T00:52:45.579Z,57.30
2019-02-22T00:55:15.436Z,57.00
2019-02-22T00:57:44.639Z,56.80
2019-02-22T01:00:14.137Z,57.00
2019-02-22T01:02:44.797Z,57.00
2019-02-22T01:05:15.513Z,56.80
2019-02-22T01:07:45.269Z,56.70
2019-02-22T01:10:15.716Z,56.70
2019-02-22T01:12:47.003Z,56.70
2019-02-22T01:15:18.286Z,56.70
2019-02-22T01:17:54.489Z,56.80
2019-02-22T01:20:30.000Z,56.80
2019-02-22T01:23:00.465Z,56.70
2019-02-22T01:25:29.530Z,56.40
2019-02-22T01:28:00.005Z,56.10
2019-02-22T01:30:29.887Z,56.30
2019-02-22T01:32:59.782Z,56.40
2019-02-22T01:35:32.321Z,56.60
2019-02-22T01:38:08.219Z,56.30
2019-02-22T01:40:43.745Z,56.30
2019-02-22T01:43:14.577Z,56.30
2019-02-22T01:45:46.956Z,56.20
2019-02-22T01:48:19.398Z,55.90
2019-02-22T01:50:49.105Z,56.40
2019-02-22T01:53:18.635Z,56.30
2019-02-22T01:55:49.517Z,56.30
2019-02-22T01:58:36.583Z,56.40
2019-02-22T02:01:10.434Z,56.20
2019-02-22T02:03:42.745Z,56.00
2019-02-22T02:06:13.118Z,55.80
2019-02-22T02:08:58.437Z,55.60
2019-02-22T02:11:30.898Z,55.60
2019-02-22T02:14:05.553Z,55.80
2019-02-22T02:16:35.594Z,55.80
2019-02-22T02:19:05.860Z,55.80
2019-02-22T02:21:35.428Z,56.60
2019-02-22T02:24:05.700Z,56.10
2019-02-22T02:26:35.797Z,56.20
2019-02-22T02:29:07.450Z,56.20
2019-02-22T02:31:39.916Z,56.20
2019-02-22T02:34:11.048Z,56.20
2019-02-22T02:36:41.713Z,56.10
2019-02-22T02:39:19.162Z,56.00
2019-02-22T02:41:54.942Z,56.10
2019-02-22T02:44:24.834Z,55.80
2019-02-22T02:47:21.063Z,55.80
2019-02-22T02:49:50.992Z,56.10
2019-02-22T02:52:23.364Z,56.30
2019-02-22T02:54:53.388Z,56.40
2019-02-22T02:57:44.356Z,56.50
2019-02-22T03:00:14.421Z,56.70
2019-02-22T03:02:49.727Z,56.50
2019-02-22T03:05:20.176Z,56.50
2019-02-22T03:07:51.235Z,56.60
2019-02-22T03:10:21.632Z,56.80
2019-02-22T03:12:52.279Z,56.70
2019-02-22T03:16:20.973Z,56.70
2019-02-22T03:26:06.156Z,56.50
2019-02-22T03:29:05.045Z,56.40
2019-02-22T03:32:03.716Z,56.60
2019-02-22T03:42:19.332Z,56.70
2019-02-22T03:49:11.077Z,56.70
2019-02-22T03:59:00.019Z,56.60
2019-02-22T04:01:51.440Z,56.70
2019-02-22T04:04:25.874Z,56.70
2019-02-22T04:07:08.925Z,56.70
2019-02-22T04:09:53.648Z,56.80
2019-02-22T04:13:07.022Z,56.90
2019-02-22T04:15:47.498Z,56.90
2019-02-22T04:22:14.049Z,57.30
2019-02-22T04:28:07.612Z,57.40
2019-02-22T04:31:20.939Z,57.60
2019-02-22T04:34:23.090Z,57.60
2019-02-22T04:37:12.787Z,57.40
2019-02-22T04:40:16.046Z,57.40
2019-02-22T04:43:30.026Z,57.50
2019-02-22T04:46:00.680Z,57.60
2019-02-22T04:48:49.104Z,57.60
2019-02-22T04:51:23.214Z,57.60
2019-02-22T04:54:10.041Z,57.60
2019-02-22T04:56:49.464Z,57.30
2019-02-22T04:59:21.022Z,57.40
2019-02-22T05:01:53.578Z,57.30
2019-02-22T05:04:26.241Z,57.30
2019-02-22T05:07:45.327Z,57.30
2019-02-22T05:10:16.061Z,57.40
2019-02-22T05:12:46.291Z,57.40
2019-02-22T05:15:16.381Z,57.30
2019-02-22T05:17:47.468Z,57.40
2019-02-22T05:20:18.295Z,57.40
2019-02-22T05:22:48.354Z,57.40
2019-02-22T05:25:18.647Z,57.40
2019-02-22T05:27:59.918Z,57.40
2019-02-22T05:30:30.333Z,57.50
2019-02-22T05:33:01.837Z,57.50
2019-02-22T05:35:33.468Z,57.50
2019-02-22T05:38:04.070Z,57.50
2019-02-22T05:40:34.136Z,57.40
2019-02-22T05:43:05.152Z,57.30
2019-02-22T05:45:43.047Z,57.30
2019-02-22T05:48:30.412Z,57.40
2019-02-22T05:51:02.528Z,57.30
2019-02-22T05:53:32.294Z,57.10
2019-02-22T05:56:03.927Z,57.10
2019-02-22T05:58:34.703Z,57.30
2019-02-22T06:01:06.860Z,57.20
2019-02-22T06:03:37.276Z,57.10
2019-02-22T06:06:09.832Z,57.10
2019-02-22T06:08:40.026Z,56.90
2019-02-22T06:11:09.531Z,56.90
2019-02-22T06:13:39.500Z,56.70
2019-02-22T06:16:08.749Z,56.70
2019-02-22T06:18:42.073Z,56.60
2019-02-22T06:21:15.433Z,56.70
2019-02-22T06:23:47.285Z,56.60
2019-02-22T06:26:20.335Z,56.60
2019-02-22T06:29:27.924Z,56.60
2019-02-22T06:32:02.613Z,56.70
2019-02-22T06:34:34.294Z,56.70
2019-02-22T06:37:37.186Z,56.60
2019-02-22T06:40:17.600Z,56.50
2019-02-22T06:43:07.773Z,56.30
2019-02-22T06:45:44.312Z,56.10
2019-02-22T06:48:19.983Z,56.00
2019-02-22T06:51:07.748Z,55.80
2019-02-22T06:54:29.831Z,55.60
2019-02-22T06:57:11.361Z,55.70
2019-02-22T07:00:04.914Z,55.60
2019-02-22T07:03:05.190Z,55.20
2019-02-22T07:05:39.022Z,55.10
2019-02-22T07:08:30.256Z,55.10
2019-02-22T07:11:29.420Z,55.20
2019-02-22T07:13:58.406Z,55.40
2019-02-22T07:16:27.313Z,55.10
2019-02-22T07:18:56.292Z,55.10
2019-02-22T07:21:25.731Z,55.10
2019-02-22T07:23:54.861Z,55.20
2019-02-22T07:26:25.118Z,55.20
2019-02-22T07:28:54.235Z,55.20
2019-02-22T07:31:35.103Z,55.20
2019-02-22T07:34:06.843Z,55.10
2019-02-22T07:36:37.921Z,55.10
2019-02-22T07:39:11.757Z,55.10
2019-02-22T07:41:44.974Z,55.30
2019-02-22T07:44:21.650Z,55.40
2019-02-22T07:46:57.306Z,55.30
2019-02-22T07:49:44.220Z,55.30
2019-02-22T07:52:19.197Z,55.30
2019-02-22T07:54:53.302Z,55.30
2019-02-22T07:57:32.941Z,55.20
2019-02-22T08:00:17.490Z,55.40
2019-02-22T08:02:48.236Z,55.30
2019-02-22T08:05:21.148Z,55.30
2019-02-22T08:07:51.948Z,55.20
2019-02-22T08:10:40.055Z,55.20
2019-02-22T08:13:19.967Z,55.20
2019-02-22T08:16:11.423Z,55.10
2019-02-22T08:18:40.627Z,55.10
2019-02-22T08:21:12.383Z,55.00
2019-02-22T08:23:41.737Z,54.80
2019-02-22T08:26:10.959Z,54.70
2019-02-22T08:28:46.027Z,54.80
2019-02-22T08:31:54.479Z,55.00
2019-02-22T08:34:28.631Z,55.10
2019-02-22T08:37:00.746Z,54.90
2019-02-22T08:39:37.194Z,54.60
2019-02-22T08:42:08.572Z,54.50
2019-02-22T08:44:38.116Z,54.20
2019-02-22T08:47:37.397Z,54.40
2019-02-22T08:50:11.059Z,54.30
2019-02-22T08:52:48.900Z,54.30
2019-02-22T08:55:18.726Z,54.10
2019-02-22T08:57:51.540Z,53.90
2019-02-22T09:00:38.071Z,53.50
2019-02-22T09:03:08.881Z,53.40
2019-02-22T09:05:40.323Z,53.40
2019-02-22T09:08:16.696Z,53.30
2019-02-22T09:10:45.784Z,53.30
2019-02-22T09:13:21.004Z,53.10
2019-02-22T09:15:51.781Z,52.80
2019-02-22T09:18:24.046Z,52.60
2019-02-22T09:20:55.393Z,52.50
2019-02-22T09:23:29.046Z,52.90
2019-02-22T09:25:58.262Z,51.00
2019-02-22T09:28:27.677Z,50.10
2019-02-22T09:34:01.379Z,48.20
2019-02-22T09:36:37.861Z,47.90
2019-02-22T09:39:10.482Z,47.30
2019-02-22T09:41:53.799Z,46.80
2019-02-22T09:44:28.926Z,46.90
2019-02-22T09:47:02.427Z,46.50
2019-02-22T09:49:41.990Z,45.60
2019-02-22T09:52:11.705Z,45.50
2019-02-22T09:54:45.210Z,45.10
2019-02-22T09:57:29.831Z,45.20
2019-02-22T09:59:58.960Z,45.10
2019-02-22T10:02:38.871Z,44.30
2019-02-22T10:05:12.050Z,43.70
2019-02-22T10:07:50.212Z,43.70
2019-02-22T10:10:26.985Z,43.90
2019-02-22T10:13:02.786Z,43.50
2019-02-22T10:15:36.444Z,43.00
2019-02-22T10:18:09.589Z,42.90
2019-02-22T10:20:42.453Z,42.70
2019-02-22T10:23:13.338Z,42.60
2019-02-22T10:26:35.727Z,43.40
2019-02-22T10:29:30.258Z,42.70
2019-02-22T10:32:08.075Z,42.70
2019-02-22T10:34:46.530Z,42.80
2019-02-22T10:37:22.040Z,43.30
2019-02-22T10:39:59.245Z,42.40
2019-02-22T10:42:29.653Z,42.40
2019-02-22T10:45:07.907Z,42.10
2019-02-22T10:48:09.110Z,42.00
2019-02-22T10:50:59.311Z,41.60
2019-02-22T10:53:32.117Z,41.00
2019-02-22T10:56:03.640Z,41.00
2019-02-22T10:58:39.064Z,40.80
2019-02-22T11:01:11.689Z,40.60
2019-02-22T11:03:44.731Z,40.40
2019-02-22T11:06:18.621Z,40.50
2019-02-22T11:09:14.790Z,40.70
2019-02-22T11:11:53.277Z,40.70
2019-02-22T11:14:35.881Z,40.60
2019-02-22T11:17:04.953Z,40.30
2019-02-22T11:19:38.158Z,40.20
2019-02-22T11:22:09.679Z,40.00
2019-02-22T11:24:41.669Z,39.80
2019-02-22T11:27:19.054Z,40.00
2019-02-22T11:29:49.603Z,39.70
2019-02-22T11:32:26.258Z,39.70
2019-02-22T11:38:24.391Z,40.10
2019-02-22T11:41:16.004Z,40.10
2019-02-22T11:43:56.390Z,40.10
2019-02-22T11:46:30.646Z,40.30
2019-02-22T11:49:19.103Z,40.00
2019-02-22T11:51:55.926Z,40.20
2019-02-22T11:54:28.818Z,39.90
2019-02-22T11:57:19.672Z,39.60
2019-02-22T12:00:11.479Z,39.60
2019-02-22T12:02:47.185Z,39.20
2019-02-22T12:05:22.144Z,39.20
2019-02-22T12:08:17.707Z,39.10
2019-02-22T12:11:01.448Z,39.30
2019-02-22T12:13:41.301Z,39.70
2019-02-22T12:16:10.830Z,39.70
2019-02-22T12:18:56.736Z,39.60
2019-02-22T12:21:28.855Z,40.00
2019-02-22T12:24:06.350Z,39.90
2019-02-22T12:26:38.051Z,40.00
2019-02-22T12:29:33.975Z,39.90
2019-02-22T12:32:49.150Z,40.10
2019-02-22T12:35:21.501Z,40.10
2019-02-22T12:37:55.731Z,40.10
2019-02-22T12:40:22.689Z,40.10
2019-02-22T12:43:08.675Z,40.60
2019-02-22T12:45:42.001Z,40.00
2019-02-22T12:48:22.361Z,39.80
2019-02-22T12:50:54.329Z,39.60
2019-02-22T12:53:32.762Z,39.10
2019-02-22T12:56:10.275Z,38.70
2019-02-22T12:58:46.710Z,38.70
2019-02-22T13:01:24.594Z,38.80
2019-02-22T13:04:06.907Z,39.10
2019-02-22T13:06:49.083Z,39.20
2019-02-22T13:12:26.479Z,39.50
2019-02-22T13:15:01.916Z,39.30
2019-02-22T13:17:34.891Z,39.50
2019-02-22T13:20:16.531Z,39.40
2019-02-22T13:22:58.372Z,39.20
2019-02-22T13:25:36.060Z,39.20
2019-02-22T13:28:11.263Z,39.30
2019-02-22T13:30:43.946Z,39.30
2019-02-22T13:33:15.248Z,39.30
2019-02-22T13:35:47.366Z,39.20
2019-02-22T13:38:18.237Z,39.00
2019-02-22T13:40:49.299Z,39.00
2019-02-22T13:43:23.127Z,39.10
2019-02-22T13:45:56.365Z,39.40
2019-02-22T13:48:32.055Z,39.60
2019-02-22T13:51:03.514Z,39.80
2019-02-22T13:53:32.584Z,39.90
2019-02-22T13:56:03.768Z,40.00
2019-02-22T13:58:38.273Z,40.00
2019-02-22T14:01:07.406Z,40.00
2019-02-22T14:03:36.779Z,39.80
2019-02-22T14:06:07.027Z,39.80
2019-02-22T14:08:37.329Z,39.70
2019-02-22T14:11:06.749Z,39.60
2019-02-22T14:13:37.238Z,39.60
2019-02-22T14:16:07.768Z,39.80
2019-02-22T14:18:51.974Z,39.90
2019-02-22T14:21:21.014Z,40.10
2019-02-22T14:23:50.425Z,40.00
2019-02-22T14:26:19.894Z,39.90
2019-02-22T14:28:59.423Z,39.60
2019-02-22T14:31:29.051Z,39.40
2019-02-22T14:34:01.993Z,39.40
2019-02-22T14:36:31.884Z,39.60
2019-02-22T14:39:01.659Z,39.40
2019-02-22T14:41:31.549Z,39.30
2019-02-22T14:44:00.848Z,39.20
2019-02-22T14:46:30.279Z,39.40
2019-02-22T14:49:00.506Z,39.70
2019-02-22T14:51:32.715Z,39.70
2019-02-22T14:54:03.716Z,39.60
2019-02-22T14:56:39.067Z,39.60
2019-02-22T14:59:21.791Z,39.40
2019-02-22T15:01:52.506Z,39.50
2019-02-22T15:04:23.334Z,39.40
2019-02-22T15:06:52.384Z,39.60
2019-02-22T15:09:31.570Z,39.70
2019-02-22T15:12:00.799Z,40.00
2019-02-22T15:14:29.836Z,39.80
2019-02-22T15:17:17.257Z,39.80
2019-02-22T15:19:46.793Z,40.10
2019-02-22T15:22:15.928Z,40.10
2019-02-22T15:24:46.624Z,40.20
2019-02-22T15:27:15.767Z,40.20
2019-02-22T15:29:44.681Z,40.30
2019-02-22T15:32:14.248Z,40.50
2019-02-22T15:34:51.213Z,40.50
2019-02-22T15:37:21.487Z,40.50
2019-02-22T15:40:00.299Z,40.60
2019-02-22T15:42:33.168Z,40.80
2019-02-22T15:45:03.861Z,40.90
2019-02-22T15:47:35.866Z,41.00
2019-02-22T15:50:13.197Z,41.10
2019-02-22T15:52:50.411Z,41.30
2019-02-22T15:55:19.961Z,41.40
2019-02-22T15:57:57.561Z,41.50
2019-02-22T16:00:28.290Z,41.70
2019-02-22T16:03:14.973Z,41.90
2019-02-22T16:05:46.728Z,41.70
2019-02-22T16:08:17.446Z,41.90
2019-02-22T16:10:47.986Z,42.10
2019-02-22T16:13:16.989Z,42.10
2019-02-22T16:15:46.352Z,42.20
2019-02-22T16:18:20.285Z,42.30
2019-02-22T16:20:49.334Z,42.30
2019-02-22T16:23:18.341Z,42.40
2019-02-22T16:25:48.415Z,42.50
2019-02-22T16:28:24.486Z,42.60
2019-02-22T16:30:53.931Z,42.50
2019-02-22T16:33:28.761Z,42.50
2019-02-22T16:35:58.618Z,42.70
2019-02-22T16:38:29.522Z,42.70
2019-02-22T16:40:58.793Z,43.00
2019-02-22T16:43:27.887Z,43.00
2019-02-22T16:46:17.417Z,43.00
2019-02-22T16:49:05.561Z,43.70
2019-02-22T16:51:37.571Z,43.40
2019-02-22T16:54:06.661Z,43.30
2019-02-22T16:56:41.211Z,43.40
2019-02-22T16:59:10.772Z,43.40
2019-02-22T17:01:51.520Z,43.60
2019-02-22T17:04:20.622Z,43.70
2019-02-22T17:06:51.908Z,43.70
2019-02-22T17:09:33.204Z,43.90
2019-02-22T17:12:06.415Z,44.00
2019-02-22T17:14:32.906Z,43.90
2019-02-22T17:17:03.087Z,44.20
2019-02-22T17:19:33.898Z,44.20
2019-02-22T17:22:41.367Z,44.10
2019-02-22T17:25:14.047Z,44.40
2019-02-22T17:27:48.092Z,44.30
2019-02-22T17:30:17.441Z,44.10
2019-02-22T17:32:46.382Z,43.90
2019-02-22T17:35:16.612Z,44.00
2019-02-22T17:37:51.959Z,44.10
2019-02-22T17:40:23.450Z,44.10
2019-02-22T17:42:52.757Z,44.00
2019-02-22T17:45:27.815Z,44.10
2019-02-22T17:47:58.035Z,44.00
2019-02-22T17:50:27.806Z,44.10
2019-02-22T17:52:58.437Z,44.20
2019-02-22T17:55:27.991Z,44.30
2019-02-22T17:57:57.753Z,44.40
2019-02-22T18:00:29.365Z,44.50
2019-02-22T18:02:59.035Z,44.50
2019-02-22T18:05:28.977Z,44.50
2019-02-22T18:07:58.586Z,44.50
2019-02-22T18:10:27.550Z,44.60
2019-02-22T18:12:57.390Z,44.70
2019-02-22T18:15:28.284Z,44.70
2019-02-22T18:18:12.360Z,44.80
2019-02-22T18:20:42.128Z,45.00
2019-02-22T18:23:11.379Z,44.80
2019-02-22T18:25:41.113Z,44.90
2019-02-22T18:28:10.152Z,44.90
2019-02-22T18:30:39.449Z,44.90
2019-02-22T18:33:25.637Z,45.70
2019-02-22T18:35:54.610Z,45.40
2019-02-22T18:38:36.407Z,45.30
2019-02-22T18:41:07.907Z,45.10
2019-02-22T18:43:36.815Z,45.00
2019-02-22T18:46:07.834Z,44.90
2019-02-22T18:49:02.397Z,44.70
2019-02-22T18:51:33.839Z,44.70
2019-02-22T18:54:03.165Z,44.50
2019-02-22T18:56:35.057Z,44.40
2019-02-22T18:59:05.282Z,44.40
2019-02-22T19:01:42.094Z,44.30
2019-02-22T19:04:18.413Z,44.30
2019-02-22T19:07:12.018Z,44.50
2019-02-22T19:09:55.901Z,44.40
2019-02-22T19:12:27.265Z,44.50
2019-02-22T19:14:57.040Z,44.40
2019-02-22T19:17:30.651Z,44.50
2019-02-22T19:20:23.328Z,44.50
2019-02-22T19:22:52.837Z,44.60
2019-02-22T19:25:22.343Z,44.50
2019-02-22T19:27:57.091Z,44.70
2019-02-22T19:30:31.406Z,44.80
2019-02-22T19:33:31.291Z,44.80
2019-02-22T19:36:04.983Z,44.80
2019-02-22T19:38:40.431Z,44.70
2019-02-22T19:41:10.889Z,44.80
2019-02-22T19:43:41.287Z,44.80
2019-02-22T19:46:17.586Z,44.70
2019-02-22T19:49:01.411Z,44.80
2019-02-22T19:51:31.838Z,44.90
2019-02-22T19:54:03.854Z,44.90
2019-02-22T19:59:57.097Z,45.00
2019-02-22T20:02:27.217Z,45.00
2019-02-22T20:05:20.688Z,45.00
2019-02-22T20:07:52.233Z,44.90
2019-02-22T20:10:37.438Z,44.90
2019-02-22T20:13:11.135Z,44.70
2019-02-22T20:15:43.184Z,44.70
2019-02-22T20:18:21.979Z,44.80
2019-02-22T20:20:53.341Z,45.00
2019-02-22T20:23:29.919Z,44.90
2019-02-22T20:26:22.664Z,45.00
2019-02-22T20:28:54.359Z,44.90
2019-02-22T20:31:30.107Z,44.80
2019-02-22T20:34:01.277Z,44.90
2019-02-22T23:02:17.498Z,47.10
2019-02-22T23:08:27.944Z,47.70
2019-02-22T23:11:14.318Z,47.90
2019-02-22T23:14:23.416Z,48.20
2019-02-22T23:19:59.466Z,48.60
2019-02-22T23:22:37.475Z,48.60
2019-02-22T23:25:23.567Z,49.00
2019-02-22T23:28:04.533Z,48.90
2019-02-22T23:31:05.776Z,49.00
2019-02-22T23:33:53.255Z,49.00
2019-02-22T23:37:00.222Z,49.00
2019-02-22T23:40:03.713Z,49.00
2019-02-22T23:43:13.639Z,49.00
2019-02-22T23:49:46.590Z,48.80
2019-02-22T23:53:05.549Z,48.60
